sensor_id;sensor_type;location;lat;lon;timestamp;P1;durP1;ratioP1;P2;durP2;ratioP2
36411;SDS011;22445;52.100;5.176;2024-03-17T00:00:50;16.95;;;12.27;;
36411;SDS011;22445;52.100;5.176;2024-03-17T00:03:15;20.30;;;11.10;;
36411;SDS011;22445;52.100;5.176;2024-03-17T00:05:41;20.88;;;12.57;;
36411;SDS011;22445;52.100;5.176;2024-03-17T00:08:07;19.48;;;12.02;;
36411;SDS011;22445;52.100;5.176;2024-03-17T00:10:33;18.92;;;12.88;;
36411;SDS011;22445;52.100;5.176;2024-03-17T00:13:00;19.08;;;12.43;;
36411;SDS011;22445;52.100;5.176;2024-03-17T00:15:28;21.52;;;12.38;;
36411;SDS011;22445;52.100;5.176;2024-03-17T00:17:54;22.02;;;12.60;;
36411;SDS011;22445;52.100;5.176;2024-03-17T00:20:19;20.70;;;11.68;;
36411;SDS011;22445;52.100;5.176;2024-03-17T00:22:49;19.95;;;11.23;;
36411;SDS011;22445;52.100;5.176;2024-03-17T00:25:16;15.95;;;11.32;;
36411;SDS011;22445;52.100;5.176;2024-03-17T00:27:43;17.48;;;11.77;;
36411;SDS011;22445;52.100;5.176;2024-03-17T00:30:09;18.02;;;10.48;;
36411;SDS011;22445;52.100;5.176;2024-03-17T00:32:38;20.13;;;11.30;;
36411;SDS011;22445;52.100;5.176;2024-03-17T00:35:05;17.55;;;10.40;;
36411;SDS011;22445;52.100;5.176;2024-03-17T00:37:32;16.40;;;9.93;;
36411;SDS011;22445;52.100;5.176;2024-03-17T00:39:58;16.30;;;9.10;;
36411;SDS011;22445;52.100;5.176;2024-03-17T00:42:25;16.80;;;8.63;;
36411;SDS011;22445;52.100;5.176;2024-03-17T00:44:51;16.33;;;8.73;;
36411;SDS011;22445;52.100;5.176;2024-03-17T00:47:16;21.83;;;9.38;;
36411;SDS011;22445;52.100;5.176;2024-03-17T00:49:42;14.90;;;8.02;;
36411;SDS011;22445;52.100;5.176;2024-03-17T00:52:08;13.35;;;7.68;;
36411;SDS011;22445;52.100;5.176;2024-03-17T00:54:33;15.52;;;8.85;;
36411;SDS011;22445;52.100;5.176;2024-03-17T00:56:59;11.70;;;7.95;;
36411;SDS011;22445;52.100;5.176;2024-03-17T00:59:24;14.63;;;8.65;;
36411;SDS011;22445;52.100;5.176;2024-03-17T01:01:51;14.30;;;7.97;;
36411;SDS011;22445;52.100;5.176;2024-03-17T01:04:16;14.32;;;7.47;;
36411;SDS011;22445;52.100;5.176;2024-03-17T01:06:42;15.88;;;6.78;;
36411;SDS011;22445;52.100;5.176;2024-03-17T01:09:08;13.32;;;7.43;;
36411;SDS011;22445;52.100;5.176;2024-03-17T01:11:34;14.80;;;7.47;;
36411;SDS011;22445;52.100;5.176;2024-03-17T01:14:00;17.88;;;6.70;;
36411;SDS011;22445;52.100;5.176;2024-03-17T01:16:25;11.95;;;6.97;;
36411;SDS011;22445;52.100;5.176;2024-03-17T01:18:51;10.85;;;6.78;;
36411;SDS011;22445;52.100;5.176;2024-03-17T01:21:16;16.42;;;7.15;;
36411;SDS011;22445;52.100;5.176;2024-03-17T01:23:42;18.80;;;8.00;;
36411;SDS011;22445;52.100;5.176;2024-03-17T01:26:08;10.30;;;6.53;;
36411;SDS011;22445;52.100;5.176;2024-03-17T01:28:33;15.05;;;6.82;;
36411;SDS011;22445;52.100;5.176;2024-03-17T01:30:59;15.90;;;7.28;;
36411;SDS011;22445;52.100;5.176;2024-03-17T01:33:24;9.90;;;7.03;;
36411;SDS011;22445;52.100;5.176;2024-03-17T01:35:50;15.18;;;7.05;;
36411;SDS011;22445;52.100;5.176;2024-03-17T01:38:16;13.13;;;6.78;;
36411;SDS011;22445;52.100;5.176;2024-03-17T01:40:42;14.15;;;6.88;;
36411;SDS011;22445;52.100;5.176;2024-03-17T01:43:10;12.98;;;7.18;;
36411;SDS011;22445;52.100;5.176;2024-03-17T01:45:37;12.30;;;6.28;;
36411;SDS011;22445;52.100;5.176;2024-03-17T01:48:03;14.00;;;7.00;;
36411;SDS011;22445;52.100;5.176;2024-03-17T01:50:34;12.73;;;7.43;;
36411;SDS011;22445;52.100;5.176;2024-03-17T01:53:03;14.20;;;6.65;;
36411;SDS011;22445;52.100;5.176;2024-03-17T01:55:32;12.27;;;5.97;;
36411;SDS011;22445;52.100;5.176;2024-03-17T01:57:59;14.18;;;6.70;;
36411;SDS011;22445;52.100;5.176;2024-03-17T02:00:24;13.15;;;5.75;;
36411;SDS011;22445;52.100;5.176;2024-03-17T02:02:52;14.40;;;6.97;;
36411;SDS011;22445;52.100;5.176;2024-03-17T02:05:17;9.23;;;6.38;;
36411;SDS011;22445;52.100;5.176;2024-03-17T02:07:43;16.67;;;6.55;;
36411;SDS011;22445;52.100;5.176;2024-03-17T02:10:08;13.35;;;7.32;;
36411;SDS011;22445;52.100;5.176;2024-03-17T02:12:34;10.98;;;6.07;;
36411;SDS011;22445;52.100;5.176;2024-03-17T02:15:01;12.43;;;6.93;;
36411;SDS011;22445;52.100;5.176;2024-03-17T02:17:30;13.27;;;6.47;;
36411;SDS011;22445;52.100;5.176;2024-03-17T02:19:57;12.02;;;5.20;;
36411;SDS011;22445;52.100;5.176;2024-03-17T02:22:22;11.25;;;6.32;;
36411;SDS011;22445;52.100;5.176;2024-03-17T02:24:48;11.88;;;7.10;;
36411;SDS011;22445;52.100;5.176;2024-03-17T02:27:14;13.65;;;6.80;;
36411;SDS011;22445;52.100;5.176;2024-03-17T02:29:40;12.23;;;6.22;;
36411;SDS011;22445;52.100;5.176;2024-03-17T02:32:06;11.15;;;6.25;;
36411;SDS011;22445;52.100;5.176;2024-03-17T02:34:35;11.70;;;6.30;;
36411;SDS011;22445;52.100;5.176;2024-03-17T02:37:02;14.52;;;7.10;;
36411;SDS011;22445;52.100;5.176;2024-03-17T02:39:29;11.05;;;7.03;;
36411;SDS011;22445;52.100;5.176;2024-03-17T02:42:05;12.95;;;7.28;;
36411;SDS011;22445;52.100;5.176;2024-03-17T02:44:32;9.20;;;6.38;;
36411;SDS011;22445;52.100;5.176;2024-03-17T02:46:59;9.60;;;6.03;;
36411;SDS011;22445;52.100;5.176;2024-03-17T02:49:26;16.95;;;6.45;;
36411;SDS011;22445;52.100;5.176;2024-03-17T02:51:55;11.60;;;6.47;;
36411;SDS011;22445;52.100;5.176;2024-03-17T02:54:21;15.88;;;7.00;;
36411;SDS011;22445;52.100;5.176;2024-03-17T02:56:48;9.93;;;6.65;;
36411;SDS011;22445;52.100;5.176;2024-03-17T02:59:14;9.70;;;6.38;;
36411;SDS011;22445;52.100;5.176;2024-03-17T03:01:39;8.65;;;5.32;;
36411;SDS011;22445;52.100;5.176;2024-03-17T03:04:05;11.90;;;6.28;;
36411;SDS011;22445;52.100;5.176;2024-03-17T03:06:32;13.50;;;6.35;;
36411;SDS011;22445;52.100;5.176;2024-03-17T03:08:58;8.77;;;5.70;;
36411;SDS011;22445;52.100;5.176;2024-03-17T03:11:24;9.13;;;6.43;;
36411;SDS011;22445;52.100;5.176;2024-03-17T03:13:49;9.60;;;6.57;;
36411;SDS011;22445;52.100;5.176;2024-03-17T03:16:15;10.75;;;6.97;;
36411;SDS011;22445;52.100;5.176;2024-03-17T03:18:41;9.55;;;5.95;;
36411;SDS011;22445;52.100;5.176;2024-03-17T03:21:09;14.90;;;6.85;;
36411;SDS011;22445;52.100;5.176;2024-03-17T03:23:36;12.50;;;6.60;;
36411;SDS011;22445;52.100;5.176;2024-03-17T03:26:02;9.80;;;6.00;;
36411;SDS011;22445;52.100;5.176;2024-03-17T03:28:30;9.57;;;6.10;;
36411;SDS011;22445;52.100;5.176;2024-03-17T03:30:57;12.75;;;6.25;;
36411;SDS011;22445;52.100;5.176;2024-03-17T03:33:23;9.18;;;6.70;;
36411;SDS011;22445;52.100;5.176;2024-03-17T03:35:48;10.73;;;6.65;;
36411;SDS011;22445;52.100;5.176;2024-03-17T03:38:15;13.05;;;6.93;;
36411;SDS011;22445;52.100;5.176;2024-03-17T03:40:41;13.13;;;6.40;;
36411;SDS011;22445;52.100;5.176;2024-03-17T03:43:07;10.45;;;7.00;;
36411;SDS011;22445;52.100;5.176;2024-03-17T03:45:34;9.32;;;6.43;;
36411;SDS011;22445;52.100;5.176;2024-03-17T03:48:00;11.00;;;7.03;;
36411;SDS011;22445;52.100;5.176;2024-03-17T03:50:26;13.48;;;7.82;;
36411;SDS011;22445;52.100;5.176;2024-03-17T03:52:51;14.02;;;7.75;;
36411;SDS011;22445;52.100;5.176;2024-03-17T03:55:18;12.80;;;7.47;;
36411;SDS011;22445;52.100;5.176;2024-03-17T03:57:44;10.43;;;6.93;;
36411;SDS011;22445;52.100;5.176;2024-03-17T04:00:13;11.65;;;7.22;;
36411;SDS011;22445;52.100;5.176;2024-03-17T04:02:40;12.52;;;7.60;;
36411;SDS011;22445;52.100;5.176;2024-03-17T04:05:07;12.85;;;7.15;;
36411;SDS011;22445;52.100;5.176;2024-03-17T04:07:33;9.55;;;7.40;;
36411;SDS011;22445;52.100;5.176;2024-03-17T04:10:01;9.95;;;7.55;;
36411;SDS011;22445;52.100;5.176;2024-03-17T04:12:30;12.10;;;7.63;;
36411;SDS011;22445;52.100;5.176;2024-03-17T04:14:59;9.50;;;7.65;;
36411;SDS011;22445;52.100;5.176;2024-03-17T04:17:25;8.90;;;6.60;;
36411;SDS011;22445;52.100;5.176;2024-03-17T04:19:51;11.27;;;7.40;;
36411;SDS011;22445;52.100;5.176;2024-03-17T04:22:17;16.10;;;8.60;;
36411;SDS011;22445;52.100;5.176;2024-03-17T04:24:44;9.82;;;7.40;;
36411;SDS011;22445;52.100;5.176;2024-03-17T04:27:16;14.70;;;7.93;;
36411;SDS011;22445;52.100;5.176;2024-03-17T04:29:42;13.60;;;8.00;;
36411;SDS011;22445;52.100;5.176;2024-03-17T04:32:08;13.38;;;8.13;;
36411;SDS011;22445;52.100;5.176;2024-03-17T04:34:36;11.88;;;7.60;;
36411;SDS011;22445;52.100;5.176;2024-03-17T04:37:01;12.52;;;7.18;;
36411;SDS011;22445;52.100;5.176;2024-03-17T04:39:28;15.43;;;7.80;;
36411;SDS011;22445;52.100;5.176;2024-03-17T04:41:54;14.02;;;7.93;;
36411;SDS011;22445;52.100;5.176;2024-03-17T04:44:19;12.23;;;7.35;;
36411;SDS011;22445;52.100;5.176;2024-03-17T04:46:45;13.48;;;7.57;;
36411;SDS011;22445;52.100;5.176;2024-03-17T04:49:11;12.00;;;7.70;;
36411;SDS011;22445;52.100;5.176;2024-03-17T04:51:37;10.65;;;7.82;;
36411;SDS011;22445;52.100;5.176;2024-03-17T04:54:02;12.02;;;7.53;;
36411;SDS011;22445;52.100;5.176;2024-03-17T04:56:34;9.32;;;7.45;;
36411;SDS011;22445;52.100;5.176;2024-03-17T04:58:59;11.35;;;7.45;;
36411;SDS011;22445;52.100;5.176;2024-03-17T05:01:25;13.88;;;8.25;;
36411;SDS011;22445;52.100;5.176;2024-03-17T05:03:53;16.30;;;8.18;;
36411;SDS011;22445;52.100;5.176;2024-03-17T05:06:19;12.15;;;8.00;;
36411;SDS011;22445;52.100;5.176;2024-03-17T05:08:44;11.65;;;7.70;;
36411;SDS011;22445;52.100;5.176;2024-03-17T05:11:10;10.55;;;7.22;;
36411;SDS011;22445;52.100;5.176;2024-03-17T05:13:37;11.35;;;7.75;;
36411;SDS011;22445;52.100;5.176;2024-03-17T05:16:05;12.35;;;8.18;;
36411;SDS011;22445;52.100;5.176;2024-03-17T05:18:31;11.27;;;7.75;;
36411;SDS011;22445;52.100;5.176;2024-03-17T05:21:00;14.80;;;7.65;;
36411;SDS011;22445;52.100;5.176;2024-03-17T05:23:30;10.75;;;7.53;;
36411;SDS011;22445;52.100;5.176;2024-03-17T05:25:57;10.55;;;7.25;;
36411;SDS011;22445;52.100;5.176;2024-03-17T05:28:27;12.63;;;8.13;;
36411;SDS011;22445;52.100;5.176;2024-03-17T05:30:53;13.73;;;8.15;;
36411;SDS011;22445;52.100;5.176;2024-03-17T05:33:20;9.88;;;8.50;;
36411;SDS011;22445;52.100;5.176;2024-03-17T05:35:52;12.88;;;7.18;;
36411;SDS011;22445;52.100;5.176;2024-03-17T05:38:38;12.38;;;7.43;;
36411;SDS011;22445;52.100;5.176;2024-03-17T05:41:07;12.77;;;7.95;;
36411;SDS011;22445;52.100;5.176;2024-03-17T05:43:34;10.25;;;7.30;;
36411;SDS011;22445;52.100;5.176;2024-03-17T05:46:01;10.60;;;7.72;;
36411;SDS011;22445;52.100;5.176;2024-03-17T05:48:28;10.70;;;7.38;;
36411;SDS011;22445;52.100;5.176;2024-03-17T05:50:57;11.18;;;8.27;;
36411;SDS011;22445;52.100;5.176;2024-03-17T05:53:22;13.27;;;7.75;;
36411;SDS011;22445;52.100;5.176;2024-03-17T05:55:51;13.77;;;8.15;;
36411;SDS011;22445;52.100;5.176;2024-03-17T05:58:17;10.85;;;7.85;;
36411;SDS011;22445;52.100;5.176;2024-03-17T06:00:42;14.45;;;8.45;;
36411;SDS011;22445;52.100;5.176;2024-03-17T06:03:09;13.23;;;8.90;;
36411;SDS011;22445;52.100;5.176;2024-03-17T06:05:35;14.05;;;8.40;;
36411;SDS011;22445;52.100;5.176;2024-03-17T06:08:02;13.90;;;9.02;;
36411;SDS011;22445;52.100;5.176;2024-03-17T06:10:30;11.52;;;7.53;;
36411;SDS011;22445;52.100;5.176;2024-03-17T06:12:56;11.90;;;7.32;;
36411;SDS011;22445;52.100;5.176;2024-03-17T06:15:23;12.70;;;7.95;;
36411;SDS011;22445;52.100;5.176;2024-03-17T06:17:49;12.80;;;7.50;;
36411;SDS011;22445;52.100;5.176;2024-03-17T06:20:18;10.07;;;7.70;;
36411;SDS011;22445;52.100;5.176;2024-03-17T06:22:49;12.07;;;7.45;;
36411;SDS011;22445;52.100;5.176;2024-03-17T06:25:15;11.20;;;8.10;;
36411;SDS011;22445;52.100;5.176;2024-03-17T06:27:41;9.82;;;7.18;;
36411;SDS011;22445;52.100;5.176;2024-03-17T06:30:16;11.27;;;8.13;;
36411;SDS011;22445;52.100;5.176;2024-03-17T06:32:43;12.35;;;7.60;;
36411;SDS011;22445;52.100;5.176;2024-03-17T06:35:14;12.95;;;8.18;;
36411;SDS011;22445;52.100;5.176;2024-03-17T06:37:50;13.27;;;7.68;;
36411;SDS011;22445;52.100;5.176;2024-03-17T06:40:17;11.05;;;7.68;;
36411;SDS011;22445;52.100;5.176;2024-03-17T06:42:43;10.57;;;7.85;;
36411;SDS011;22445;52.100;5.176;2024-03-17T06:45:09;12.38;;;8.10;;
36411;SDS011;22445;52.100;5.176;2024-03-17T06:47:37;11.38;;;8.57;;
36411;SDS011;22445;52.100;5.176;2024-03-17T06:50:04;13.90;;;8.88;;
36411;SDS011;22445;52.100;5.176;2024-03-17T06:52:30;10.45;;;7.28;;
36411;SDS011;22445;52.100;5.176;2024-03-17T06:54:56;10.63;;;8.10;;
36411;SDS011;22445;52.100;5.176;2024-03-17T06:57:23;10.98;;;7.97;;
36411;SDS011;22445;52.100;5.176;2024-03-17T06:59:49;13.35;;;8.48;;
36411;SDS011;22445;52.100;5.176;2024-03-17T07:02:16;13.52;;;7.85;;
36411;SDS011;22445;52.100;5.176;2024-03-17T07:04:43;9.85;;;8.18;;
36411;SDS011;22445;52.100;5.176;2024-03-17T07:07:09;9.70;;;7.55;;
36411;SDS011;22445;52.100;5.176;2024-03-17T07:09:35;12.82;;;8.63;;
36411;SDS011;22445;52.100;5.176;2024-03-17T07:12:01;10.38;;;8.30;;
36411;SDS011;22445;52.100;5.176;2024-03-17T07:14:27;11.75;;;9.00;;
36411;SDS011;22445;52.100;5.176;2024-03-17T07:16:53;11.07;;;7.95;;
36411;SDS011;22445;52.100;5.176;2024-03-17T07:19:19;10.93;;;8.57;;
36411;SDS011;22445;52.100;5.176;2024-03-17T07:21:44;11.45;;;8.35;;
36411;SDS011;22445;52.100;5.176;2024-03-17T07:24:10;15.35;;;8.90;;
36411;SDS011;22445;52.100;5.176;2024-03-17T07:26:35;9.07;;;7.22;;
36411;SDS011;22445;52.100;5.176;2024-03-17T07:29:01;10.93;;;7.90;;
36411;SDS011;22445;52.100;5.176;2024-03-17T07:31:27;11.43;;;8.20;;
36411;SDS011;22445;52.100;5.176;2024-03-17T07:33:52;12.10;;;8.25;;
36411;SDS011;22445;52.100;5.176;2024-03-17T07:36:18;10.80;;;8.05;;
36411;SDS011;22445;52.100;5.176;2024-03-17T07:38:43;9.63;;;8.02;;
36411;SDS011;22445;52.100;5.176;2024-03-17T07:41:09;10.57;;;8.18;;
36411;SDS011;22445;52.100;5.176;2024-03-17T07:43:35;8.95;;;7.50;;
36411;SDS011;22445;52.100;5.176;2024-03-17T07:46:03;9.55;;;7.45;;
36411;SDS011;22445;52.100;5.176;2024-03-17T07:48:30;10.32;;;7.93;;
36411;SDS011;22445;52.100;5.176;2024-03-17T07:51:03;9.63;;;8.60;;
36411;SDS011;22445;52.100;5.176;2024-03-17T07:53:33;10.07;;;7.88;;
36411;SDS011;22445;52.100;5.176;2024-03-17T07:56:00;10.82;;;7.68;;
36411;SDS011;22445;52.100;5.176;2024-03-17T07:58:31;11.48;;;7.90;;
36411;SDS011;22445;52.100;5.176;2024-03-17T08:01:00;9.82;;;8.10;;
36411;SDS011;22445;52.100;5.176;2024-03-17T08:03:30;10.98;;;8.70;;
36411;SDS011;22445;52.100;5.176;2024-03-17T08:05:58;9.70;;;7.20;;
36411;SDS011;22445;52.100;5.176;2024-03-17T08:08:25;9.10;;;7.75;;
36411;SDS011;22445;52.100;5.176;2024-03-17T08:10:50;11.95;;;7.78;;
36411;SDS011;22445;52.100;5.176;2024-03-17T08:13:19;9.57;;;7.38;;
36411;SDS011;22445;52.100;5.176;2024-03-17T08:15:46;10.15;;;7.80;;
36411;SDS011;22445;52.100;5.176;2024-03-17T08:18:21;10.65;;;8.20;;
36411;SDS011;22445;52.100;5.176;2024-03-17T08:20:47;10.82;;;8.10;;
36411;SDS011;22445;52.100;5.176;2024-03-17T08:23:12;9.25;;;8.15;;
36411;SDS011;22445;52.100;5.176;2024-03-17T08:25:38;9.02;;;7.20;;
36411;SDS011;22445;52.100;5.176;2024-03-17T08:28:04;11.13;;;7.63;;
36411;SDS011;22445;52.100;5.176;2024-03-17T08:30:30;11.73;;;7.90;;
36411;SDS011;22445;52.100;5.176;2024-03-17T08:32:56;10.13;;;8.05;;
36411;SDS011;22445;52.100;5.176;2024-03-17T08:35:22;9.43;;;7.90;;
36411;SDS011;22445;52.100;5.176;2024-03-17T08:37:48;10.95;;;8.13;;
36411;SDS011;22445;52.100;5.176;2024-03-17T08:40:14;9.18;;;7.43;;
36411;SDS011;22445;52.100;5.176;2024-03-17T08:42:39;12.52;;;8.15;;
36411;SDS011;22445;52.100;5.176;2024-03-17T08:45:05;9.82;;;7.63;;
36411;SDS011;22445;52.100;5.176;2024-03-17T08:47:31;8.98;;;7.60;;
36411;SDS011;22445;52.100;5.176;2024-03-17T08:49:57;13.48;;;8.10;;
36411;SDS011;22445;52.100;5.176;2024-03-17T08:52:23;10.60;;;7.70;;
36411;SDS011;22445;52.100;5.176;2024-03-17T08:54:49;9.80;;;7.05;;
36411;SDS011;22445;52.100;5.176;2024-03-17T08:57:17;12.15;;;7.95;;
36411;SDS011;22445;52.100;5.176;2024-03-17T08:59:46;12.02;;;7.80;;
36411;SDS011;22445;52.100;5.176;2024-03-17T09:02:13;12.93;;;7.53;;
36411;SDS011;22445;52.100;5.176;2024-03-17T09:04:42;9.23;;;7.38;;
36411;SDS011;22445;52.100;5.176;2024-03-17T09:07:08;10.18;;;7.82;;
36411;SDS011;22445;52.100;5.176;2024-03-17T09:09:34;9.13;;;7.45;;
36411;SDS011;22445;52.100;5.176;2024-03-17T09:11:59;9.95;;;7.32;;
36411;SDS011;22445;52.100;5.176;2024-03-17T09:14:25;9.55;;;7.75;;
36411;SDS011;22445;52.100;5.176;2024-03-17T09:16:51;10.73;;;8.20;;
36411;SDS011;22445;52.100;5.176;2024-03-17T09:19:16;10.98;;;7.88;;
36411;SDS011;22445;52.100;5.176;2024-03-17T09:21:42;9.85;;;7.10;;
36411;SDS011;22445;52.100;5.176;2024-03-17T09:24:08;9.23;;;7.93;;
36411;SDS011;22445;52.100;5.176;2024-03-17T09:26:34;8.95;;;7.57;;
36411;SDS011;22445;52.100;5.176;2024-03-17T09:29:03;11.95;;;8.07;;
36411;SDS011;22445;52.100;5.176;2024-03-17T09:31:29;10.07;;;7.70;;
36411;SDS011;22445;52.100;5.176;2024-03-17T09:33:55;11.55;;;7.45;;
36411;SDS011;22445;52.100;5.176;2024-03-17T09:36:21;10.45;;;7.25;;
36411;SDS011;22445;52.100;5.176;2024-03-17T09:38:46;13.45;;;7.65;;
36411;SDS011;22445;52.100;5.176;2024-03-17T09:41:30;9.68;;;7.10;;
36411;SDS011;22445;52.100;5.176;2024-03-17T09:43:56;8.88;;;7.13;;
36411;SDS011;22445;52.100;5.176;2024-03-17T09:46:23;8.07;;;6.75;;
36411;SDS011;22445;52.100;5.176;2024-03-17T09:48:49;9.18;;;7.45;;
36411;SDS011;22445;52.100;5.176;2024-03-17T09:51:19;8.05;;;6.53;;
36411;SDS011;22445;52.100;5.176;2024-03-17T09:53:46;8.65;;;6.88;;
36411;SDS011;22445;52.100;5.176;2024-03-17T09:56:12;11.80;;;7.05;;
36411;SDS011;22445;52.100;5.176;2024-03-17T09:58:46;8.25;;;6.57;;
36411;SDS011;22445;52.100;5.176;2024-03-17T10:01:16;9.25;;;6.95;;
36411;SDS011;22445;52.100;5.176;2024-03-17T10:03:42;8.20;;;6.97;;
36411;SDS011;22445;52.100;5.176;2024-03-17T10:06:13;9.48;;;6.38;;
36411;SDS011;22445;52.100;5.176;2024-03-17T10:08:42;11.45;;;6.95;;
36411;SDS011;22445;52.100;5.176;2024-03-17T10:11:19;8.35;;;6.72;;
36411;SDS011;22445;52.100;5.176;2024-03-17T10:13:46;10.02;;;6.90;;
36411;SDS011;22445;52.100;5.176;2024-03-17T10:16:25;10.50;;;6.22;;
36411;SDS011;22445;52.100;5.176;2024-03-17T10:21:44;6.75;;;5.78;;
36411;SDS011;22445;52.100;5.176;2024-03-17T10:24:20;8.90;;;5.72;;
36411;SDS011;22445;52.100;5.176;2024-03-17T10:26:57;7.40;;;6.13;;
36411;SDS011;22445;52.100;5.176;2024-03-17T10:29:25;10.02;;;6.40;;
36411;SDS011;22445;52.100;5.176;2024-03-17T10:31:52;7.68;;;5.53;;
36411;SDS011;22445;52.100;5.176;2024-03-17T10:34:44;6.95;;;5.65;;
36411;SDS011;22445;52.100;5.176;2024-03-17T10:40:02;10.15;;;5.25;;
36411;SDS011;22445;52.100;5.176;2024-03-17T10:42:29;6.25;;;5.07;;
36411;SDS011;22445;52.100;5.176;2024-03-17T10:44:56;6.95;;;5.40;;
36411;SDS011;22445;52.100;5.176;2024-03-17T10:47:24;5.90;;;5.30;;
36411;SDS011;22445;52.100;5.176;2024-03-17T10:49:51;9.65;;;5.70;;
36411;SDS011;22445;52.100;5.176;2024-03-17T10:52:17;8.07;;;6.30;;
36411;SDS011;22445;52.100;5.176;2024-03-17T10:54:47;7.60;;;5.60;;
36411;SDS011;22445;52.100;5.176;2024-03-17T11:00:23;7.78;;;5.50;;
36411;SDS011;22445;52.100;5.176;2024-03-17T11:02:52;8.98;;;6.20;;
36411;SDS011;22445;52.100;5.176;2024-03-17T11:05:26;6.50;;;5.65;;
36411;SDS011;22445;52.100;5.176;2024-03-17T11:07:58;6.03;;;5.43;;
36411;SDS011;22445;52.100;5.176;2024-03-17T11:10:38;9.68;;;6.20;;
36411;SDS011;22445;52.100;5.176;2024-03-17T11:13:04;6.80;;;5.70;;
36411;SDS011;22445;52.100;5.176;2024-03-17T11:21:07;8.95;;;5.93;;
36411;SDS011;22445;52.100;5.176;2024-03-17T11:24:06;9.85;;;6.30;;
36411;SDS011;22445;52.100;5.176;2024-03-17T11:26:33;7.60;;;5.75;;
36411;SDS011;22445;52.100;5.176;2024-03-17T11:29:00;8.23;;;6.28;;
36411;SDS011;22445;52.100;5.176;2024-03-17T11:37:05;8.73;;;7.35;;
36411;SDS011;22445;52.100;5.176;2024-03-17T11:39:45;7.68;;;6.75;;
36411;SDS011;22445;52.100;5.176;2024-03-17T11:42:23;8.45;;;6.40;;
36411;SDS011;22445;52.100;5.176;2024-03-17T11:44:55;7.20;;;6.43;;
36411;SDS011;22445;52.100;5.176;2024-03-17T11:47:21;8.77;;;6.78;;
36411;SDS011;22445;52.100;5.176;2024-03-17T11:49:47;8.00;;;6.93;;
36411;SDS011;22445;52.100;5.176;2024-03-17T11:52:14;8.27;;;7.00;;
36411;SDS011;22445;52.100;5.176;2024-03-17T11:54:42;9.88;;;6.90;;
36411;SDS011;22445;52.100;5.176;2024-03-17T11:57:27;7.32;;;6.60;;
36411;SDS011;22445;52.100;5.176;2024-03-17T11:59:54;8.73;;;7.35;;
36411;SDS011;22445;52.100;5.176;2024-03-17T12:05:07;10.00;;;6.60;;
36411;SDS011;22445;52.100;5.176;2024-03-17T12:07:33;9.23;;;6.93;;
36411;SDS011;22445;52.100;5.176;2024-03-17T12:10:08;8.48;;;6.70;;
36411;SDS011;22445;52.100;5.176;2024-03-17T12:12:35;9.95;;;6.65;;
36411;SDS011;22445;52.100;5.176;2024-03-17T12:15:02;9.60;;;6.95;;
36411;SDS011;22445;52.100;5.176;2024-03-17T12:17:29;7.90;;;6.32;;
36411;SDS011;22445;52.100;5.176;2024-03-17T12:19:54;10.52;;;7.10;;
36411;SDS011;22445;52.100;5.176;2024-03-17T12:22:21;9.57;;;7.30;;
36411;SDS011;22445;52.100;5.176;2024-03-17T12:24:54;7.22;;;6.43;;
36411;SDS011;22445;52.100;5.176;2024-03-17T12:27:22;8.18;;;6.43;;
36411;SDS011;22445;52.100;5.176;2024-03-17T12:29:49;7.68;;;6.70;;
36411;SDS011;22445;52.100;5.176;2024-03-17T12:32:17;8.38;;;7.43;;
36411;SDS011;22445;52.100;5.176;2024-03-17T12:34:48;10.07;;;7.10;;
36411;SDS011;22445;52.100;5.176;2024-03-17T12:37:21;9.07;;;7.05;;
36411;SDS011;22445;52.100;5.176;2024-03-17T12:39:48;10.43;;;7.03;;
36411;SDS011;22445;52.100;5.176;2024-03-17T12:42:27;9.35;;;7.15;;
36411;SDS011;22445;52.100;5.176;2024-03-17T12:44:54;8.65;;;7.35;;
36411;SDS011;22445;52.100;5.176;2024-03-17T12:47:24;10.40;;;6.93;;
36411;SDS011;22445;52.100;5.176;2024-03-17T12:49:51;11.02;;;7.63;;
36411;SDS011;22445;52.100;5.176;2024-03-17T12:52:18;10.55;;;7.55;;
36411;SDS011;22445;52.100;5.176;2024-03-17T12:54:45;9.70;;;7.43;;
36411;SDS011;22445;52.100;5.176;2024-03-17T12:57:41;8.65;;;7.60;;
36411;SDS011;22445;52.100;5.176;2024-03-17T13:00:25;9.60;;;7.47;;
36411;SDS011;22445;52.100;5.176;2024-03-17T13:02:57;9.57;;;7.30;;
36411;SDS011;22445;52.100;5.176;2024-03-17T13:05:23;10.73;;;7.38;;
36411;SDS011;22445;52.100;5.176;2024-03-17T13:07:49;11.10;;;7.80;;
36411;SDS011;22445;52.100;5.176;2024-03-17T13:10:18;10.25;;;7.65;;
36411;SDS011;22445;52.100;5.176;2024-03-17T13:12:45;9.77;;;7.88;;
36411;SDS011;22445;52.100;5.176;2024-03-17T13:15:12;9.30;;;7.93;;
36411;SDS011;22445;52.100;5.176;2024-03-17T13:17:44;9.82;;;8.02;;
36411;SDS011;22445;52.100;5.176;2024-03-17T13:20:13;10.60;;;7.72;;
36411;SDS011;22445;52.100;5.176;2024-03-17T13:22:40;11.65;;;7.75;;
36411;SDS011;22445;52.100;5.176;2024-03-17T13:25:25;9.88;;;7.85;;
36411;SDS011;22445;52.100;5.176;2024-03-17T13:27:54;11.18;;;8.13;;
36411;SDS011;22445;52.100;5.176;2024-03-17T13:30:21;10.32;;;8.05;;
36411;SDS011;22445;52.100;5.176;2024-03-17T13:32:49;9.45;;;7.63;;
36411;SDS011;22445;52.100;5.176;2024-03-17T13:35:21;9.60;;;7.45;;
36411;SDS011;22445;52.100;5.176;2024-03-17T13:37:49;8.88;;;7.97;;
36411;SDS011;22445;52.100;5.176;2024-03-17T13:40:15;9.90;;;8.35;;
36411;SDS011;22445;52.100;5.176;2024-03-17T13:42:44;8.35;;;7.13;;
36411;SDS011;22445;52.100;5.176;2024-03-17T13:45:10;9.20;;;7.68;;
36411;SDS011;22445;52.100;5.176;2024-03-17T13:47:37;10.07;;;7.18;;
36411;SDS011;22445;52.100;5.176;2024-03-17T13:50:03;10.55;;;8.25;;
36411;SDS011;22445;52.100;5.176;2024-03-17T13:52:32;10.77;;;8.23;;
36411;SDS011;22445;52.100;5.176;2024-03-17T13:54:58;9.27;;;8.20;;
36411;SDS011;22445;52.100;5.176;2024-03-17T13:57:24;9.88;;;7.38;;
36411;SDS011;22445;52.100;5.176;2024-03-17T13:59:50;11.70;;;9.00;;
36411;SDS011;22445;52.100;5.176;2024-03-17T14:02:17;9.48;;;7.43;;
36411;SDS011;22445;52.100;5.176;2024-03-17T14:04:43;10.07;;;7.40;;
36411;SDS011;22445;52.100;5.176;2024-03-17T14:07:09;12.32;;;8.48;;
36411;SDS011;22445;52.100;5.176;2024-03-17T14:09:34;8.45;;;7.20;;
36411;SDS011;22445;52.100;5.176;2024-03-17T14:12:00;9.85;;;7.88;;
36411;SDS011;22445;52.100;5.176;2024-03-17T14:14:26;11.23;;;7.80;;
36411;SDS011;22445;52.100;5.176;2024-03-17T14:16:51;10.52;;;7.00;;
36411;SDS011;22445;52.100;5.176;2024-03-17T14:19:17;7.72;;;6.38;;
36411;SDS011;22445;52.100;5.176;2024-03-17T14:21:42;10.73;;;7.45;;
36411;SDS011;22445;52.100;5.176;2024-03-17T14:24:08;8.82;;;6.68;;
36411;SDS011;22445;52.100;5.176;2024-03-17T14:26:35;8.82;;;7.03;;
36411;SDS011;22445;52.100;5.176;2024-03-17T14:29:01;10.35;;;7.55;;
36411;SDS011;22445;52.100;5.176;2024-03-17T14:31:31;9.27;;;7.07;;
36411;SDS011;22445;52.100;5.176;2024-03-17T14:33:58;9.45;;;7.40;;
36411;SDS011;22445;52.100;5.176;2024-03-17T14:36:24;8.65;;;6.47;;
36411;SDS011;22445;52.100;5.176;2024-03-17T14:38:55;10.77;;;7.47;;
36411;SDS011;22445;52.100;5.176;2024-03-17T14:41:20;7.75;;;6.35;;
36411;SDS011;22445;52.100;5.176;2024-03-17T14:43:46;10.20;;;7.40;;
36411;SDS011;22445;52.100;5.176;2024-03-17T14:46:12;8.48;;;7.28;;
36411;SDS011;22445;52.100;5.176;2024-03-17T14:48:39;9.07;;;6.95;;
36411;SDS011;22445;52.100;5.176;2024-03-17T14:51:05;11.77;;;6.82;;
36411;SDS011;22445;52.100;5.176;2024-03-17T14:53:31;9.38;;;7.45;;
36411;SDS011;22445;52.100;5.176;2024-03-17T14:55:57;9.23;;;6.72;;
36411;SDS011;22445;52.100;5.176;2024-03-17T14:58:22;11.27;;;7.72;;
36411;SDS011;22445;52.100;5.176;2024-03-17T15:00:48;10.48;;;6.97;;
36411;SDS011;22445;52.100;5.176;2024-03-17T15:03:14;8.07;;;6.30;;